Jilin, China
Current Conditions -  °F | °C
As of 12:00 PM on Sunday 26 Oct 2014 (Local Time) from ZYCC Reporting Station
Clear Clear  
Wind Chill: 35°   Ceiling: Unl
Heat Index: 43°   Visibility: 6mi
Dew Point:   Wind: 16mph
Humidity: 25%   Direction: 290°WNW
Pressure: 30.12"   Gusts: 27mph
Location:  43.85°N, 126.55°E
Report Text: ZYCC 260400Z 29007G12MPS 260V320 CAVOK 06/M13 Q1020 NOSIG
Loading
Personal Weather Stations






























Interactive Weather Map
Tropical Storm Tracking
New forecast layout! Learn more

10-Day Weather Forecast

Advertisements
Track Severe Weather on mobile